Terminal Aerodrome Forecast
Issued by NWS

Home | Current Version | Previous Version | Text Only | Print | Product List | Glossary On
Versions: 1 2 3 4 5 6 7 8 9 10 11 12 13 14 15
000
FTUS43 KGLD 241120
TAFMCK
TAF
KMCK 241120Z 2412/2512 33013G18KT 4SM RA BR SCT007 BKN015
     FM241400 33017G28KT 3SM RA BR BKN007
     FM241900 33017G27KT P6SM VCSH OVC025
     FM242100 35018G27KT P6SM BKN030
     FM250300 34011KT P6SM VCSH BKN025=

USA.gov is the U.S. government's official web portal to all federal, state and local government web resources and services.